Time;durP1;ratioP1;P1;durP2;ratioP2;P2;SDS_P1;SDS_P2;PMS_P1;PMS_P2;Temp;Humidity;BMP_temperature;BMP_pressure;BME280_temperature;BME280_humidity;BME280_pressure;Samples;Min_cycle;Max_cycle;Signal;HPM_P1;HPM_P2
2021/05/07 00:02:01;;;;;;;9.23;2.45;;;7.30;82.60;;;;;;5068468;28;20024;-71
2021/05/07 00:04:27;;;;;;;10.07;2.03;;;7.30;81.90;;;;;;5067749;28;20035;-71
2021/05/07 00:06:53;;;;;;;5.22;2.17;;;7.20;81.50;;;;;;5068463;28;20088;-71
2021/05/07 00:09:19;;;;;;;6.85;2.28;;;7.20;82.10;;;;;;5070470;28;20033;-70
2021/05/07 00:11:45;;;;;;;5.28;2.10;;;7.20;81.70;;;;;;5066520;28;20429;-70
2021/05/07 00:14:11;;;;;;;7.25;2.13;;;7.20;82.40;;;;;;5068827;28;20058;-71
2021/05/07 00:16:37;;;;;;;4.35;1.58;;;7.20;81.20;;;;;;5068142;28;20036;-71
2021/05/07 00:19:06;;;;;;;4.15;1.77;;;7.20;81.80;;;;;;5068600;28;20029;-70
2021/05/07 00:21:33;;;;;;;5.43;2.30;;;7.20;81.90;;;;;;5068412;28;20111;-71
2021/05/07 00:23:59;;;;;;;5.50;1.98;;;7.20;81.90;;;;;;5070808;28;20033;-71
2021/05/07 00:26:25;;;;;;;5.88;2.17;;;7.20;81.90;;;;;;5061617;28;20036;-71
2021/05/07 00:28:50;;;;;;;4.95;2.35;;;7.10;81.40;;;;;;5068940;28;20412;-71
2021/05/07 00:31:17;;;;;;;6.97;1.92;;;7.20;81.40;;;;;;5073383;28;20432;-71
2021/05/07 00:33:43;;;;;;;6.20;1.80;;;7.10;81.30;;;;;;5069123;28;20025;-71
2021/05/07 00:36:08;;;;;;;4.70;1.83;;;7.20;82.00;;;;;;5068316;28;20039;-71
2021/05/07 00:38:34;;;;;;;4.15;2.15;;;7.10;81.70;;;;;;5067377;28;20081;-71
2021/05/07 00:41:00;;;;;;;5.55;2.10;;;7.20;81.60;;;;;;5069347;28;20093;-71
2021/05/07 00:43:26;;;;;;;3.92;2.03;;;7.10;81.30;;;;;;5069351;28;20170;-71
2021/05/07 00:45:51;;;;;;;9.02;2.03;;;7.20;81.70;;;;;;5067278;28;20064;-70
2021/05/07 00:48:18;;;;;;;6.97;2.10;;;7.20;80.70;;;;;;5071391;28;20029;-71
2021/05/07 00:50:45;;;;;;;7.55;2.47;;;7.10;80.70;;;;;;5070733;28;20083;-71
2021/05/07 00:53:11;;;;;;;9.05;2.10;;;7.10;81.10;;;;;;5070723;28;20029;-71
2021/05/07 00:55:38;;;;;;;6.05;1.90;;;7.10;81.10;;;;;;5070460;28;20044;-70
2021/05/07 00:58:05;;;;;;;5.50;2.10;;;7.10;81.50;;;;;;5069501;28;20048;-72
2021/05/07 01:00:31;;;;;;;4.72;1.70;;;7.10;80.60;;;;;;5068402;28;20041;-71
2021/05/07 01:02:58;;;;;;;6.60;2.00;;;7.10;81.50;;;;;;5069582;28;20027;-73
2021/05/07 01:05:25;;;;;;;5.95;1.80;;;7.10;81.90;;;;;;5069339;28;20020;-71
2021/05/07 01:07:51;;;;;;;5.35;2.05;;;7.10;81.80;;;;;;5068989;28;20482;-70
2021/05/07 01:10:18;;;;;;;11.77;2.28;;;7.10;82.00;;;;;;5069887;28;20021;-71
2021/05/07 01:12:45;;;;;;;5.43;1.88;;;7.10;82.20;;;;;;5068426;28;20079;-72
2021/05/07 01:15:23;;;;;;;4.13;1.70;;;7.10;81.60;;;;;;5080136;28;20449;-71
2021/05/07 01:17:58;;;;;;;5.05;1.80;;;7.10;81.10;;;;;;5067819;28;20440;-71
2021/05/07 01:20:25;;;;;;;5.85;1.75;;;7.10;82.60;;;;;;5067085;28;20063;-72
2021/05/07 01:22:53;;;;;;;6.78;1.88;;;7.10;82.00;;;;;;5068918;28;20032;-71
2021/05/07 01:25:24;;;;;;;8.35;2.58;;;7.10;82.20;;;;;;5069178;28;20052;-71
2021/05/07 01:27:53;;;;;;;4.90;2.22;;;7.10;81.80;;;;;;5069775;28;20024;-71
2021/05/07 01:30:27;;;;;;;5.82;1.80;;;7.10;81.50;;;;;;5065488;28;20021;-71
2021/05/07 01:32:53;;;;;;;6.07;1.58;;;7.10;82.40;;;;;;5064629;28;20029;-72
2021/05/07 01:35:21;;;;;;;5.70;2.03;;;7.10;82.70;;;;;;5069102;28;20547;-71
2021/05/07 01:37:49;;;;;;;4.28;1.83;;;7.10;82.50;;;;;;5069906;28;20095;-72
2021/05/07 01:40:17;;;;;;;3.83;1.50;;;7.10;81.80;;;;;;5065915;28;20039;-72
2021/05/07 01:42:43;;;;;;;5.93;1.92;;;7.10;81.60;;;;;;5067559;28;20030;-71
2021/05/07 01:45:10;;;;;;;5.65;2.05;;;7.10;82.10;;;;;;5067803;28;20037;-71
2021/05/07 01:47:36;;;;;;;5.53;2.28;;;7.10;81.90;;;;;;5064430;28;20035;-73
2021/05/07 01:50:04;;;;;;;5.80;2.53;;;7.10;81.60;;;;;;5069578;28;20107;-71
2021/05/07 01:52:30;;;;;;;5.40;1.85;;;7.10;82.00;;;;;;5070525;28;20087;-72
2021/05/07 01:54:55;;;;;;;6.47;2.17;;;7.10;81.60;;;;;;5068372;28;20499;-70
2021/05/07 01:57:27;;;;;;;4.85;2.00;;;7.10;81.60;;;;;;5066693;28;20024;-72
2021/05/07 01:59:53;;;;;;;5.22;1.80;;;7.10;81.70;;;;;;5068108;28;20043;-71
2021/05/07 02:02:19;;;;;;;7.72;2.10;;;7.10;80.60;;;;;;5067285;28;20041;-70
2021/05/07 02:04:44;;;;;;;11.05;2.13;;;7.10;81.20;;;;;;5068667;28;20063;-71
2021/05/07 02:07:10;;;;;;;5.28;1.80;;;7.10;81.60;;;;;;5065302;28;20454;-71
2021/05/07 02:09:36;;;;;;;7.60;2.10;;;7.10;81.70;;;;;;5069283;28;20021;-71
2021/05/07 02:12:01;;;;;;;5.50;2.03;;;7.10;81.50;;;;;;5070805;28;20047;-70
2021/05/07 02:14:27;;;;;;;4.18;1.80;;;7.10;81.50;;;;;;5076363;28;20502;-70
2021/05/07 02:16:52;;;;;;;4.72;2.13;;;7.10;80.90;;;;;;5066950;28;20380;-71
2021/05/07 02:19:18;;;;;;;5.30;1.92;;;7.00;81.00;;;;;;5067605;28;20536;-72
2021/05/07 02:21:44;;;;;;;7.30;1.60;;;7.00;80.90;;;;;;5066065;28;20024;-71
2021/05/07 02:24:11;;;;;;;4.10;1.65;;;7.00;81.10;;;;;;5069704;28;20035;-71
2021/05/07 02:26:37;;;;;;;6.30;1.80;;;7.10;81.80;;;;;;5067670;28;20077;-70
2021/05/07 02:29:04;;;;;;;6.43;1.80;;;7.10;80.40;;;;;;5065060;28;20117;-71
2021/05/07 02:31:29;;;;;;;4.70;2.17;;;7.00;80.80;;;;;;5066317;28;20277;-71
2021/05/07 02:33:55;;;;;;;9.73;2.30;;;7.10;81.20;;;;;;5067467;28;20032;-70
2021/05/07 02:36:21;;;;;;;3.97;1.80;;;7.00;81.00;;;;;;5068355;28;20616;-70
2021/05/07 02:38:47;;;;;;;4.70;1.80;;;7.00;81.50;;;;;;5066640;28;20024;-71
2021/05/07 02:41:12;;;;;;;5.03;1.80;;;7.00;81.70;;;;;;5067758;28;20221;-70
2021/05/07 02:43:38;;;;;;;4.80;1.98;;;7.00;81.00;;;;;;5067517;28;20033;-70
2021/05/07 02:46:04;;;;;;;8.85;2.30;;;7.00;80.80;;;;;;5067611;28;20430;-71
2021/05/07 02:48:29;;;;;;;10.23;3.00;;;7.00;80.50;;;;;;5065792;28;20107;-71
2021/05/07 02:50:55;;;;;;;8.52;2.03;;;7.00;81.20;;;;;;5067854;28;20517;-71
2021/05/07 02:53:21;;;;;;;7.18;2.00;;;6.90;81.50;;;;;;5069043;28;20020;-71
2021/05/07 02:55:46;;;;;;;5.60;2.20;;;6.90;80.60;;;;;;5062367;28;20929;-70
2021/05/07 02:58:12;;;;;;;6.35;2.17;;;6.90;81.10;;;;;;5068300;28;20043;-71
2021/05/07 03:00:38;;;;;;;4.30;1.77;;;6.90;81.80;;;;;;5066040;28;20096;-71
2021/05/07 03:03:04;;;;;;;6.93;1.65;;;6.90;81.60;;;;;;5070575;28;20013;-71
2021/05/07 03:05:29;;;;;;;4.88;1.60;;;6.90;81.80;;;;;;5070514;28;20025;-71
2021/05/07 03:07:55;;;;;;;8.95;1.63;;;6.90;82.20;;;;;;5066473;28;20028;-71
2021/05/07 03:10:21;;;;;;;5.40;1.90;;;6.90;81.60;;;;;;5065374;28;20413;-71
2021/05/07 03:12:46;;;;;;;7.70;1.90;;;6.90;82.40;;;;;;5068375;28;20068;-71
2021/05/07 03:15:12;;;;;;;6.63;1.80;;;6.90;82.00;;;;;;5066394;28;20036;-70
2021/05/07 03:17:39;;;;;;;10.18;2.45;;;6.90;82.10;;;;;;5064759;28;20048;-71
2021/05/07 03:20:06;;;;;;;10.10;1.70;;;6.80;82.80;;;;;;5072500;28;20044;-71
2021/05/07 03:22:31;;;;;;;5.10;1.80;;;6.90;83.20;;;;;;5066848;28;20471;-71
2021/05/07 03:24:57;;;;;;;5.93;1.80;;;6.90;84.00;;;;;;5066162;28;20037;-71
2021/05/07 03:27:23;;;;;;;4.80;1.70;;;6.80;84.10;;;;;;5063380;28;20375;-71
2021/05/07 03:29:48;;;;;;;8.63;2.70;;;6.80;84.20;;;;;;5069247;28;20013;-71
2021/05/07 03:32:14;;;;;;;4.90;2.92;;;6.80;84.80;;;;;;5069033;28;20020;-71
2021/05/07 03:34:40;;;;;;;5.30;2.03;;;6.80;85.00;;;;;;5070678;28;20070;-71
2021/05/07 03:37:05;;;;;;;7.03;1.92;;;6.80;85.00;;;;;;5068435;28;20525;-71
2021/05/07 03:39:31;;;;;;;5.78;1.85;;;6.70;85.60;;;;;;5071132;28;20036;-71
2021/05/07 03:41:57;;;;;;;8.77;2.25;;;6.70;85.60;;;;;;5068491;28;20397;-71
2021/05/07 03:44:22;;;;;;;4.22;1.88;;;6.70;86.60;;;;;;5068920;28;20028;-71
2021/05/07 03:46:48;;;;;;;5.38;2.10;;;6.60;86.30;;;;;;5070117;28;20028;-71
2021/05/07 03:49:14;;;;;;;10.45;2.20;;;6.60;86.40;;;;;;5069534;28;20372;-70
2021/05/07 03:51:39;;;;;;;3.92;1.50;;;6.60;86.60;;;;;;5070740;28;20024;-72
2021/05/07 03:54:06;;;;;;;4.00;1.77;;;6.70;86.80;;;;;;5072214;28;20494;-71
2021/05/07 03:56:31;;;;;;;4.93;2.17;;;6.70;86.90;;;;;;5068086;28;20390;-70
2021/05/07 03:58:57;;;;;;;4.63;1.90;;;6.60;87.20;;;;;;5069883;28;20107;-71
2021/05/07 04:01:24;;;;;;;5.07;1.70;;;6.60;88.00;;;;;;5069801;28;20033;-71
2021/05/07 04:03:51;;;;;;;4.25;1.75;;;6.60;87.50;;;;;;5068005;28;20563;-72
2021/05/07 04:06:19;;;;;;;4.82;1.70;;;6.60;87.30;;;;;;5071049;28;20390;-73
2021/05/07 04:08:53;;;;;;;3.58;1.65;;;6.60;87.60;;;;;;5070136;28;20025;-71
2021/05/07 04:11:29;;;;;;;3.25;1.40;;;6.60;87.80;;;;;;5067613;28;20029;-72
2021/05/07 04:13:55;;;;;;;6.88;1.58;;;6.60;87.90;;;;;;5076323;28;20043;-71
2021/05/07 04:16:20;;;;;;;3.60;1.20;;;6.60;88.20;;;;;;5072214;28;20033;-71
2021/05/07 04:18:46;;;;;;;4.72;1.48;;;6.50;87.60;;;;;;5066411;28;20399;-70
2021/05/07 04:21:11;;;;;;;5.43;1.50;;;6.50;87.80;;;;;;5070187;28;20067;-71
2021/05/07 04:23:37;;;;;;;3.03;1.65;;;6.40;88.50;;;;;;5068626;28;20119;-70
2021/05/07 04:26:03;;;;;;;4.68;1.67;;;6.40;89.00;;;;;;5066551;28;20540;-71
2021/05/07 04:28:28;;;;;;;6.32;1.80;;;6.50;88.90;;;;;;5070168;28;20047;-70
2021/05/07 04:30:54;;;;;;;4.72;1.70;;;6.50;89.00;;;;;;5069197;28;20037;-69
2021/05/07 04:33:20;;;;;;;4.00;1.85;;;6.50;89.00;;;;;;5070012;28;20557;-71
2021/05/07 04:35:46;;;;;;;4.95;2.10;;;6.40;88.90;;;;;;5069639;28;20249;-71
2021/05/07 04:38:11;;;;;;;3.35;1.67;;;6.50;89.10;;;;;;5069578;28;20032;-71
2021/05/07 04:40:38;;;;;;;2.67;1.85;;;6.50;89.30;;;;;;5069557;28;20032;-72
2021/05/07 04:43:04;;;;;;;4.53;1.98;;;6.50;89.00;;;;;;5068191;28;20032;-71
2021/05/07 04:45:31;;;;;;;3.63;1.83;;;6.50;88.90;;;;;;5065070;28;20021;-70
2021/05/07 04:47:57;;;;;;;3.58;1.75;;;6.50;89.00;;;;;;5066274;28;20020;-70
2021/05/07 04:50:23;;;;;;;4.47;1.60;;;6.50;89.10;;;;;;5069603;28;20462;-70
2021/05/07 04:52:49;;;;;;;4.88;2.20;;;6.50;89.30;;;;;;5066959;28;20024;-70
2021/05/07 04:55:16;;;;;;;5.07;2.00;;;6.50;89.40;;;;;;5067834;28;20016;-72
2021/05/07 04:57:42;;;;;;;5.38;2.30;;;6.50;89.60;;;;;;5066420;28;20029;-70
2021/05/07 05:00:08;;;;;;;5.05;1.98;;;6.50;89.90;;;;;;5069388;28;20039;-69
2021/05/07 05:02:34;;;;;;;3.85;1.80;;;6.50;90.00;;;;;;5068579;28;20138;-70
2021/05/07 05:05:02;;;;;;;4.18;1.83;;;6.40;90.10;;;;;;5072185;28;20024;-70
2021/05/07 05:07:28;;;;;;;5.90;2.13;;;6.40;89.90;;;;;;5069347;28;20101;-69
2021/05/07 05:09:53;;;;;;;4.28;2.10;;;6.40;90.10;;;;;;5066894;28;20082;-71
2021/05/07 05:12:19;;;;;;;5.15;2.53;;;6.40;90.20;;;;;;5067325;28;20040;-70
2021/05/07 05:14:45;;;;;;;4.50;2.30;;;6.40;90.20;;;;;;5068520;28;20047;-70
2021/05/07 05:17:10;;;;;;;4.18;2.15;;;6.40;90.20;;;;;;5064373;28;20032;-70
2021/05/07 05:19:36;;;;;;;5.05;2.55;;;6.40;90.40;;;;;;5069000;28;20040;-70
2021/05/07 05:22:02;;;;;;;5.28;2.80;;;6.40;90.30;;;;;;5069967;28;20021;-70
2021/05/07 05:24:27;;;;;;;4.43;2.35;;;6.40;90.40;;;;;;5068548;28;20043;-70
2021/05/07 05:26:53;;;;;;;6.00;2.65;;;6.30;90.80;;;;;;5065786;28;20029;-71
2021/05/07 05:29:19;;;;;;;3.85;2.25;;;6.30;90.60;;;;;;5065929;28;20104;-69
2021/05/07 05:31:44;;;;;;;4.03;2.38;;;6.30;90.70;;;;;;5068118;28;20052;-71
2021/05/07 05:34:10;;;;;;;4.97;2.28;;;6.30;90.50;;;;;;5066274;28;20036;-71
2021/05/07 05:36:45;;;;;;;5.45;2.35;;;6.30;90.60;;;;;;5069930;28;20093;-70
2021/05/07 05:39:12;;;;;;;5.22;2.45;;;6.30;90.70;;;;;;5071003;28;20114;-70
2021/05/07 05:41:37;;;;;;;6.30;2.20;;;6.20;90.20;;;;;;5069020;28;20063;-70
2021/05/07 05:44:03;;;;;;;5.45;2.45;;;6.20;90.10;;;;;;5066980;28;20447;-70
2021/05/07 05:46:29;;;;;;;6.63;2.08;;;6.20;90.30;;;;;;5056401;28;20033;-70
2021/05/07 05:48:55;;;;;;;5.68;2.58;;;6.20;90.30;;;;;;5064985;28;20032;-70
2021/05/07 05:51:20;;;;;;;3.58;1.75;;;6.20;90.30;;;;;;5065317;28;20047;-70
2021/05/07 05:53:46;;;;;;;4.90;1.92;;;6.30;90.10;;;;;;5060665;28;20052;-71
2021/05/07 05:56:13;;;;;;;3.65;1.52;;;6.30;90.10;;;;;;5064893;28;20037;-70
2021/05/07 05:58:39;;;;;;;4.50;1.90;;;6.30;90.10;;;;;;5059927;28;20410;-68
2021/05/07 06:01:05;;;;;;;3.03;1.60;;;6.40;90.20;;;;;;5058957;28;21028;-71
2021/05/07 06:03:31;;;;;;;2.90;2.20;;;6.30;89.50;;;;;;5063823;28;20028;-71
2021/05/07 06:05:57;;;;;;;4.30;2.05;;;6.30;88.90;;;;;;5068860;28;20021;-70
2021/05/07 06:08:22;;;;;;;4.72;2.05;;;6.30;89.80;;;;;;5068350;28;20425;-72
2021/05/07 06:10:48;;;;;;;4.68;1.88;;;6.40;90.10;;;;;;5069420;28;20598;-71
2021/05/07 06:13:14;;;;;;;4.55;2.00;;;6.50;90.10;;;;;;5067812;28;20028;-71
2021/05/07 06:15:39;;;;;;;4.05;1.67;;;6.50;90.10;;;;;;5064803;28;20025;-71
2021/05/07 06:18:05;;;;;;;4.25;2.13;;;6.60;90.10;;;;;;5064842;28;20036;-70
2021/05/07 06:20:31;;;;;;;4.38;1.80;;;6.60;90.10;;;;;;5063508;28;20028;-72
2021/05/07 06:22:57;;;;;;;3.53;2.00;;;6.60;88.70;;;;;;5066843;28;20149;-70
2021/05/07 06:25:26;;;;;;;3.47;2.10;;;6.60;89.30;;;;;;5068343;28;20083;-71
2021/05/07 06:27:52;;;;;;;3.05;2.05;;;6.60;89.60;;;;;;5067823;28;20044;-71
2021/05/07 06:30:18;;;;;;;3.35;1.77;;;6.60;89.70;;;;;;5064791;28;20032;-70
2021/05/07 06:32:44;;;;;;;5.18;2.08;;;6.70;89.90;;;;;;5065627;28;20024;-71
2021/05/07 06:35:11;;;;;;;3.20;1.80;;;6.80;90.00;;;;;;5066323;28;20036;-70
2021/05/07 06:37:36;;;;;;;4.03;1.60;;;6.80;89.70;;;;;;5065636;28;20107;-70
2021/05/07 06:40:05;;;;;;;5.25;2.10;;;6.90;89.60;;;;;;5063759;28;20162;-70
2021/05/07 06:42:33;;;;;;;5.78;2.40;;;6.90;89.00;;;;;;5067122;28;20020;-70
2021/05/07 06:44:58;;;;;;;4.60;2.60;;;7.30;89.20;;;;;;5068102;28;20024;-70
2021/05/07 06:47:24;;;;;;;4.70;2.60;;;7.40;88.20;;;;;;5068355;28;20486;-71
2021/05/07 06:49:50;;;;;;;5.35;2.10;;;7.40;88.40;;;;;;5067776;28;20422;-71
2021/05/07 06:52:15;;;;;;;5.10;2.55;;;7.30;88.40;;;;;;5065958;28;20033;-70
2021/05/07 06:54:41;;;;;;;4.72;2.30;;;7.30;88.60;;;;;;5067990;28;20032;-71
2021/05/07 06:57:07;;;;;;;6.93;2.88;;;7.30;88.80;;;;;;5068918;28;20124;-70
2021/05/07 06:59:32;;;;;;;6.82;3.13;;;7.30;88.70;;;;;;5061947;28;20482;-71
2021/05/07 07:02:01;;;;;;;5.97;3.20;;;7.20;88.50;;;;;;5063310;28;20551;-70
2021/05/07 07:04:27;;;;;;;5.40;2.83;;;7.20;88.10;;;;;;5068283;28;20491;-70
2021/05/07 07:06:54;;;;;;;5.13;2.85;;;7.20;88.40;;;;;;5064064;28;20491;-72
2021/05/07 07:09:19;;;;;;;5.40;3.00;;;7.10;88.50;;;;;;5071506;28;20028;-69
2021/05/07 07:11:46;;;;;;;6.32;2.80;;;7.10;88.30;;;;;;5077321;28;20028;-71
2021/05/07 07:14:12;;;;;;;7.72;2.72;;;7.10;88.40;;;;;;5067468;28;20036;-71
2021/05/07 07:16:38;;;;;;;4.57;2.60;;;7.10;88.80;;;;;;5068696;28;20068;-70
2021/05/07 07:19:04;;;;;;;4.97;2.58;;;7.10;89.10;;;;;;5068560;28;20075;-70
2021/05/07 07:21:30;;;;;;;5.78;2.92;;;7.10;89.00;;;;;;5065618;28;20021;-70
2021/05/07 07:23:56;;;;;;;6.32;3.13;;;7.10;89.10;;;;;;5069465;28;20024;-69
2021/05/07 07:26:22;;;;;;;5.53;2.78;;;7.10;88.50;;;;;;5071294;28;20027;-70
2021/05/07 07:28:52;;;;;;;4.78;2.40;;;7.10;88.40;;;;;;5068639;28;20132;-71
2021/05/07 07:31:18;;;;;;;4.65;2.50;;;7.10;88.20;;;;;;5068169;28;20055;-69
2021/05/07 07:33:43;;;;;;;5.13;2.05;;;7.20;88.00;;;;;;5069669;28;20126;-69
2021/05/07 07:36:09;;;;;;;4.18;1.98;;;7.30;88.10;;;;;;5068883;28;20028;-72
2021/05/07 07:38:35;;;;;;;5.88;1.75;;;7.40;86.90;;;;;;5068343;28;20028;-71
2021/05/07 07:41:02;;;;;;;4.72;2.20;;;7.40;87.20;;;;;;5069949;28;20055;-70
2021/05/07 07:43:28;;;;;;;3.53;2.05;;;7.50;87.10;;;;;;5071405;28;20038;-71
2021/05/07 07:45:54;;;;;;;2.50;1.95;;;7.60;86.80;;;;;;5069076;28;20031;-72
2021/05/07 07:48:20;;;;;;;5.50;2.28;;;7.70;86.10;;;;;;5068004;28;20028;-70
2021/05/07 07:50:46;;;;;;;2.83;1.52;;;7.70;85.10;;;;;;5067020;28;20041;-71
2021/05/07 07:53:12;;;;;;;4.68;2.13;;;7.80;85.70;;;;;;5067877;28;20025;-69
2021/05/07 07:55:38;;;;;;;5.20;2.13;;;7.80;85.30;;;;;;5073213;28;20098;-69
2021/05/07 07:58:04;;;;;;;3.70;1.58;;;7.80;84.30;;;;;;5069199;28;20027;-70
2021/05/07 08:00:29;;;;;;;3.83;1.83;;;7.80;83.90;;;;;;5072116;28;20033;-69
2021/05/07 08:02:56;;;;;;;4.13;1.60;;;7.80;85.10;;;;;;5066820;28;20024;-70
2021/05/07 08:05:22;;;;;;;3.67;1.75;;;7.90;83.90;;;;;;5051726;28;20037;-70
2021/05/07 08:07:48;;;;;;;3.78;1.50;;;8.00;83.50;;;;;;5068741;28;20107;-69
2021/05/07 08:10:16;;;;;;;7.38;2.08;;;8.10;83.70;;;;;;5070035;28;20040;-69
2021/05/07 08:12:43;;;;;;;3.88;1.65;;;8.20;83.90;;;;;;5068190;28;20078;-70
2021/05/07 08:15:09;;;;;;;6.15;2.03;;;8.20;83.60;;;;;;5070615;28;20482;-70
2021/05/07 08:17:35;;;;;;;2.15;1.48;;;8.30;83.90;;;;;;5073542;28;20028;-69
2021/05/07 08:20:03;;;;;;;2.15;1.55;;;8.00;85.10;;;;;;5068708;28;20678;-69
2021/05/07 08:22:29;;;;;;;2.92;1.35;;;7.80;86.20;;;;;;5069186;28;20055;-70
2021/05/07 08:24:54;;;;;;;2.67;1.27;;;7.60;87.70;;;;;;5067059;28;20495;-69
2021/05/07 08:27:20;;;;;;;3.17;1.65;;;7.50;88.80;;;;;;5065215;28;20028;-69
2021/05/07 08:29:47;;;;;;;3.85;1.10;;;7.30;88.30;;;;;;5069133;28;20025;-69
2021/05/07 08:32:13;;;;;;;2.72;1.02;;;7.20;88.10;;;;;;5068133;28;20040;-69
2021/05/07 08:34:42;;;;;;;3.50;0.90;;;7.10;88.20;;;;;;5075640;28;20543;-69
2021/05/07 08:37:08;;;;;;;2.55;0.98;;;7.00;89.00;;;;;;5069427;28;20040;-70
2021/05/07 08:39:35;;;;;;;3.15;1.58;;;6.90;89.40;;;;;;5069375;28;20039;-69
2021/05/07 08:42:01;;;;;;;1.15;0.68;;;6.90;90.00;;;;;;5069282;28;20182;-70
2021/05/07 08:44:27;;;;;;;1.50;0.65;;;6.90;90.30;;;;;;5065403;28;20074;-70
2021/05/07 08:46:54;;;;;;;1.55;0.70;;;6.90;90.20;;;;;;5062880;28;20032;-70
2021/05/07 08:49:20;;;;;;;3.10;0.90;;;6.90;90.10;;;;;;5060748;28;20033;-69
2021/05/07 08:51:46;;;;;;;1.92;0.80;;;7.00;89.80;;;;;;5066800;28;20024;-70
2021/05/07 08:54:12;;;;;;;3.25;1.10;;;7.00;89.90;;;;;;5062184;28;20067;-70
2021/05/07 08:56:38;;;;;;;5.18;1.10;;;7.10;90.10;;;;;;5061072;28;20036;-70
2021/05/07 08:59:04;;;;;;;4.18;0.90;;;7.20;90.40;;;;;;5061535;28;20031;-70
2021/05/07 09:01:58;;;;;;;2.42;0.88;;;7.30;90.20;;;;;;5059899;28;20032;-70
2021/05/07 09:04:24;;;;;;;2.13;0.90;;;7.40;90.00;;;;;;5061098;28;20115;-70
2021/05/07 09:06:52;;;;;;;1.58;0.98;;;7.40;89.90;;;;;;5059268;28;20175;-70
2021/05/07 09:09:31;;;;;;;1.80;0.88;;;7.50;89.90;;;;;;5061187;28;20138;-70
2021/05/07 09:12:00;;;;;;;4.00;0.90;;;7.50;87.90;;;;;;5066027;28;20028;-69
2021/05/07 09:14:27;;;;;;;1.85;0.88;;;7.60;88.80;;;;;;5069729;28;20036;-70
2021/05/07 09:16:59;;;;;;;2.30;1.05;;;7.70;88.40;;;;;;5066939;28;20094;-69
2021/05/07 09:19:27;;;;;;;1.55;1.10;;;7.80;87.90;;;;;;5072573;28;20055;-71
2021/05/07 09:21:54;;;;;;;2.63;1.00;;;7.90;86.80;;;;;;5069561;28;20029;-70
2021/05/07 09:24:36;;;;;;;3.45;1.17;;;7.90;86.00;;;;;;5067061;28;20060;-70
2021/05/07 09:27:02;;;;;;;2.33;1.38;;;8.00;87.20;;;;;;5067851;28;20024;-71
2021/05/07 09:29:31;;;;;;;4.40;1.52;;;8.10;86.60;;;;;;5068140;28;20428;-70
2021/05/07 09:32:00;;;;;;;3.63;1.35;;;8.30;87.30;;;;;;5065096;28;20025;-71
2021/05/07 09:34:26;;;;;;;3.05;0.93;;;8.40;87.00;;;;;;5067173;28;20032;-69
2021/05/07 09:36:53;;;;;;;3.00;1.00;;;8.50;86.50;;;;;;5068095;28;20054;-70
2021/05/07 09:39:26;;;;;;;2.63;1.00;;;8.60;85.60;;;;;;5067099;28;20110;-70
2021/05/07 09:41:53;;;;;;;2.72;1.10;;;8.80;86.30;;;;;;5069262;28;20043;-70
2021/05/07 09:44:24;;;;;;;4.60;2.45;;;8.90;82.00;;;;;;5069335;28;20108;-71
2021/05/07 09:46:53;;;;;;;2.67;1.30;;;9.00;80.40;;;;;;5075822;28;20032;-70
2021/05/07 09:49:27;;;;;;;3.83;1.30;;;9.00;81.50;;;;;;5066134;28;20037;-70
2021/05/07 09:51:54;;;;;;;3.30;1.20;;;8.90;84.00;;;;;;5057645;28;20032;-70
2021/05/07 09:54:20;;;;;;;2.28;1.20;;;8.70;85.10;;;;;;5062604;28;20506;-69
2021/05/07 09:56:46;;;;;;;2.90;1.17;;;8.60;86.40;;;;;;5068536;28;20062;-69
2021/05/07 09:59:12;;;;;;;3.83;1.50;;;8.50;87.00;;;;;;5068024;28;20029;-71
2021/05/07 10:01:42;;;;;;;5.30;1.40;;;8.40;86.20;;;;;;5067428;28;20107;-71
2021/05/07 10:04:08;;;;;;;3.45;0.95;;;8.40;87.80;;;;;;5068227;28;20418;-69
2021/05/07 10:06:33;;;;;;;2.70;1.10;;;8.30;86.60;;;;;;5073996;28;20024;-70
2021/05/07 10:08:59;;;;;;;2.92;0.93;;;8.20;85.70;;;;;;5067213;28;20028;-70
2021/05/07 10:11:40;;;;;;;2.10;0.90;;;8.10;86.50;;;;;;5067238;28;20033;-69
2021/05/07 10:14:09;;;;;;;1.95;0.90;;;8.00;85.60;;;;;;5068559;28;20029;-69
2021/05/07 10:16:35;;;;;;;3.08;0.82;;;8.00;86.40;;;;;;5071537;28;20036;-70
2021/05/07 10:19:12;;;;;;;2.38;0.80;;;8.10;86.00;;;;;;5071461;28;20024;-69
2021/05/07 10:21:47;;;;;;;2.25;0.90;;;8.30;87.50;;;;;;5069281;28;20023;-70
2021/05/07 10:24:16;;;;;;;2.10;1.10;;;8.40;87.80;;;;;;5068133;28;20490;-70
2021/05/07 10:26:50;;;;;;;2.40;1.42;;;8.40;86.20;;;;;;5067152;28;20474;-69
2021/05/07 10:29:26;;;;;;;1.42;0.93;;;8.50;86.90;;;;;;5068430;28;20093;-70
2021/05/07 10:31:57;;;;;;;1.27;0.82;;;8.60;87.10;;;;;;5064927;28;20028;-69
2021/05/07 10:34:24;;;;;;;1.95;1.10;;;8.70;86.40;;;;;;5068558;28;20060;-69
2021/05/07 10:36:54;;;;;;;3.60;1.20;;;8.80;85.20;;;;;;5067688;28;20041;-70
2021/05/07 10:39:31;;;;;;;3.47;1.35;;;8.90;86.30;;;;;;5071544;28;20508;-70
2021/05/07 10:42:01;;;;;;;3.20;1.08;;;9.00;86.50;;;;;;5070652;28;20051;-69
2021/05/07 10:44:29;;;;;;;2.72;1.55;;;8.90;85.30;;;;;;5071428;28;20033;-70
2021/05/07 10:47:11;;;;;;;3.88;1.40;;;8.80;84.70;;;;;;5070311;28;20035;-69
2021/05/07 10:49:42;;;;;;;5.07;1.55;;;8.80;84.50;;;;;;5072339;28;20113;-68
2021/05/07 10:52:11;;;;;;;3.20;1.15;;;8.70;82.70;;;;;;5069313;28;20032;-68
2021/05/07 10:54:46;;;;;;;3.05;1.27;;;8.60;82.70;;;;;;5068116;28;20036;-70
2021/05/07 10:57:22;;;;;;;2.50;1.20;;;8.60;82.00;;;;;;5069561;28;20126;-69
2021/05/07 11:00:01;;;;;;;2.10;1.30;;;8.60;80.90;;;;;;5069751;28;20025;-69
2021/05/07 11:02:27;;;;;;;4.63;1.17;;;8.80;80.90;;;;;;5071507;28;20390;-69
2021/05/07 11:04:53;;;;;;;1.92;0.90;;;8.90;79.20;;;;;;5071793;28;20033;-70
2021/05/07 11:07:27;;;;;;;2.50;0.80;;;9.00;77.10;;;;;;5070298;28;20028;-70
2021/05/07 11:10:06;;;;;;;4.82;1.30;;;9.20;76.60;;;;;;5070707;28;20167;-68
2021/05/07 11:12:32;;;;;;;2.58;1.10;;;9.60;74.90;;;;;;5072457;28;20028;-70
2021/05/07 11:14:58;;;;;;;1.67;0.75;;;10.00;74.80;;;;;;5070584;28;20039;-68
2021/05/07 11:17:24;;;;;;;3.30;0.98;;;10.30;73.30;;;;;;5071351;28;20059;-68
2021/05/07 11:19:50;;;;;;;2.53;0.60;;;11.00;66.30;;;;;;5071361;28;20086;-69
2021/05/07 11:22:16;;;;;;;1.95;1.02;;;11.70;65.00;;;;;;5067880;28;20040;-69
2021/05/07 11:24:43;;;;;;;2.50;1.05;;;12.00;62.80;;;;;;5085533;28;20021;-71
2021/05/07 11:27:19;;;;;;;5.03;1.25;;;11.80;61.20;;;;;;5069725;28;20048;-74
2021/05/07 11:29:45;;;;;;;2.90;0.80;;;11.40;64.40;;;;;;5072501;28;20371;-70
2021/05/07 11:32:18;;;;;;;3.38;1.35;;;11.10;63.30;;;;;;5070530;28;20024;-70
2021/05/07 11:34:59;;;;;;;1.33;0.95;;;10.70;63.80;;;;;;5066276;28;20029;-72
2021/05/07 11:37:27;;;;;;;4.38;1.02;;;10.40;64.80;;;;;;5070390;28;20020;-73
2021/05/07 11:39:59;;;;;;;2.90;1.00;;;10.20;66.80;;;;;;5078657;28;20028;-72
2021/05/07 11:42:34;;;;;;;4.43;1.10;;;10.10;67.10;;;;;;5074006;28;20542;-72
2021/05/07 11:45:02;;;;;;;3.90;1.08;;;10.10;68.50;;;;;;5071044;28;20408;-71
2021/05/07 11:47:30;;;;;;;2.00;0.73;;;10.70;66.30;;;;;;5072638;28;20296;-71
2021/05/07 11:49:56;;;;;;;5.75;1.10;;;11.20;67.30;;;;;;5058731;28;20029;-71
2021/05/07 11:52:42;;;;;;;4.20;0.82;;;11.90;63.70;;;;;;5069421;28;20051;-71
2021/05/07 11:55:23;;;;;;;3.42;0.98;;;12.40;62.10;;;;;;5070071;28;20040;-71
2021/05/07 11:57:58;;;;;;;;;;;12.80;61.80;;;;;;5071681;28;20085;-72
2021/05/07 12:00:24;;;;;;;0.98;0.75;;;13.20;60.70;;;;;;5070134;28;20378;-74
2021/05/07 12:03:03;;;;;;;2.88;0.80;;;13.20;59.40;;;;;;5065541;28;20504;-72
2021/05/07 12:05:33;;;;;;;4.75;0.95;;;13.40;59.30;;;;;;5066791;28;20036;-73
2021/05/07 12:08:00;;;;;;;3.75;0.88;;;13.60;61.30;;;;;;5068588;28;20032;-70
2021/05/07 12:10:28;;;;;;;5.07;1.20;;;14.00;55.40;;;;;;5065362;28;20021;-70
2021/05/07 12:12:55;;;;;;;1.58;0.73;;;13.70;57.20;;;;;;5067774;28;20032;-74
2021/05/07 12:15:22;;;;;;;3.83;0.90;;;13.40;56.90;;;;;;5068490;28;20029;-74
2021/05/07 12:17:51;;;;;;;3.92;0.93;;;13.00;57.30;;;;;;5066056;28;20359;-71
2021/05/07 12:20:22;;;;;;;3.67;1.00;;;12.50;60.50;;;;;;5069253;28;20418;-73
2021/05/07 12:22:53;;;;;;;4.70;1.00;;;12.00;59.70;;;;;;5064347;28;20025;-69
2021/05/07 12:25:20;;;;;;;3.42;1.08;;;11.50;61.50;;;;;;5065737;28;20069;-72
2021/05/07 12:27:48;;;;;;;3.95;1.10;;;11.00;61.10;;;;;;5058665;28;20482;-71
2021/05/07 12:30:24;;;;;;;3.15;0.93;;;10.60;65.20;;;;;;5069486;28;20033;-73
2021/05/07 12:33:07;;;;;;;2.35;1.10;;;10.30;65.70;;;;;;5067088;28;20043;-73
2021/05/07 12:35:44;;;;;;;6.05;2.30;;;10.00;67.90;;;;;;5063018;28;20035;-71
2021/05/07 12:38:20;;;;;;;3.17;1.15;;;9.80;69.80;;;;;;5073777;28;20454;-72
2021/05/07 12:40:46;;;;;;;108.35;44.22;;;9.40;71.10;;;;;;5065888;28;20033;-71
2021/05/07 12:43:12;;;;;;;2.97;1.98;;;9.20;70.90;;;;;;5065680;28;20123;-70
2021/05/07 12:45:38;;;;;;;9.48;4.65;;;8.90;71.40;;;;;;5062751;28;20491;-71
2021/05/07 12:48:04;;;;;;;3.22;1.00;;;8.80;74.40;;;;;;5056729;28;20053;-71
2021/05/07 12:50:30;;;;;;;4.00;1.08;;;8.80;74.70;;;;;;5062834;28;20094;-71
2021/05/07 12:52:56;;;;;;;3.50;1.35;;;8.80;75.20;;;;;;5062703;28;20112;-70
2021/05/07 12:55:22;;;;;;;4.45;1.38;;;8.80;75.30;;;;;;5059712;28;20490;-71
2021/05/07 12:57:48;;;;;;;3.40;1.27;;;8.80;77.50;;;;;;5057342;28;20473;-71